Time;durP1;ratioP1;P1;durP2;ratioP2;P2;SDS_P1;SDS_P2;PMS_P1;PMS_P2;Temp;Humidity;BMP_temperature;BMP_pressure;BME280_temperature;BME280_humidity;BME280_pressure;Samples;Min_cycle;Max_cycle;Signal;HPM_P1;HPM_P2
2021/07/09 00:01:54;;;;;;;6.18;4.72;;;17.00;99.90;;;;;;6226226;28;20054;-77
2021/07/09 00:04:58;;;;;;;5.38;4.07;;;16.90;99.90;;;;;;6225709;28;20052;-78
2021/07/09 00:08:00;;;;;;;6.35;4.40;;;16.90;99.90;;;;;;6225359;28;20073;-77
2021/07/09 00:11:03;;;;;;;6.47;5.13;;;16.90;99.90;;;;;;6225814;28;20181;-78
2021/07/09 00:14:05;;;;;;;5.88;4.68;;;16.80;99.90;;;;;;6223541;28;20125;-78
2021/07/09 00:17:07;;;;;;;7.50;4.75;;;16.80;99.90;;;;;;6225651;28;20165;-77
2021/07/09 00:20:11;;;;;;;5.72;4.55;;;16.80;99.90;;;;;;6207378;28;20253;-77
2021/07/09 00:23:13;;;;;;;8.13;4.63;;;16.80;99.90;;;;;;6211240;28;20050;-77
2021/07/09 00:26:15;;;;;;;8.05;4.97;;;16.80;99.90;;;;;;6222686;28;20077;-78
2021/07/09 00:29:17;;;;;;;5.10;4.70;;;16.80;99.90;;;;;;6201507;28;20111;-77
2021/07/09 00:32:19;;;;;;;5.63;5.13;;;16.80;99.90;;;;;;6220021;28;20057;-77
2021/07/09 00:35:22;;;;;;;4.55;4.05;;;16.80;99.90;;;;;;6217557;28;20189;-79
2021/07/09 00:38:24;;;;;;;6.68;4.78;;;16.80;99.90;;;;;;6211458;28;20125;-79
2021/07/09 00:41:26;;;;;;;7.50;5.18;;;16.80;99.90;;;;;;6232797;28;20113;-77
2021/07/09 00:44:28;;;;;;;7.10;4.50;;;16.70;99.90;;;;;;6212445;28;20120;-79
2021/07/09 00:47:29;;;;;;;6.53;4.72;;;16.70;99.90;;;;;;6220080;28;20061;-80
2021/07/09 00:50:33;;;;;;;5.28;4.63;;;16.70;99.90;;;;;;6226294;28;20073;-80
2021/07/09 00:53:35;;;;;;;9.13;4.82;;;16.70;99.90;;;;;;6207791;28;20133;-78
2021/07/09 00:56:37;;;;;;;6.07;4.57;;;16.70;99.90;;;;;;6228710;28;20069;-79
2021/07/09 00:59:39;;;;;;;7.25;5.60;;;16.70;99.90;;;;;;6217862;28;20508;-80
2021/07/09 01:02:41;;;;;;;5.03;3.95;;;16.60;99.90;;;;;;6212584;28;20112;-77
2021/07/09 01:05:44;;;;;;;6.47;4.60;;;16.70;99.90;;;;;;6230752;28;20108;-79
2021/07/09 01:08:47;;;;;;;11.48;4.47;;;16.60;99.90;;;;;;6208246;28;20546;-81
2021/07/09 01:11:51;;;;;;;5.45;4.57;;;16.60;99.90;;;;;;6222517;28;20048;-80
2021/07/09 01:14:53;;;;;;;4.75;4.28;;;16.60;99.90;;;;;;6223954;28;20050;-80
2021/07/09 01:17:56;;;;;;;8.43;4.05;;;16.60;99.90;;;;;;6207496;28;20141;-78
2021/07/09 01:21:00;;;;;;;5.78;5.25;;;16.60;99.90;;;;;;6206853;28;20129;-78
2021/07/09 01:24:05;;;;;;;5.88;4.65;;;16.60;99.90;;;;;;6224247;28;20569;-79
2021/07/09 01:27:08;;;;;;;11.85;5.90;;;16.60;99.90;;;;;;6231152;28;20141;-79
2021/07/09 01:30:12;;;;;;;7.15;5.35;;;16.50;99.90;;;;;;6230031;28;20117;-78
2021/07/09 01:33:14;;;;;;;5.68;4.35;;;16.50;99.90;;;;;;6207662;28;20107;-79
2021/07/09 01:36:18;;;;;;;5.65;5.15;;;16.60;99.90;;;;;;6226126;28;20050;-80
2021/07/09 01:39:21;;;;;;;5.28;4.57;;;16.60;99.90;;;;;;6220909;28;20496;-78
2021/07/09 01:42:23;;;;;;;10.02;4.10;;;16.60;99.90;;;;;;6210657;28;20096;-78
2021/07/09 01:45:25;;;;;;;6.05;5.43;;;16.60;99.90;;;;;;6231862;28;20133;-79
2021/07/09 01:48:28;;;;;;;7.38;4.25;;;16.60;99.90;;;;;;6211020;28;20540;-80
2021/07/09 01:51:31;;;;;;;5.43;4.60;;;16.60;99.90;;;;;;6219224;28;20111;-79
2021/07/09 01:54:37;;;;;;;6.57;5.45;;;16.70;99.90;;;;;;6226506;28;20416;-78
2021/07/09 01:57:40;;;;;;;5.85;5.35;;;16.70;99.90;;;;;;6214475;28;20113;-78
2021/07/09 02:00:42;;;;;;;4.28;3.90;;;16.80;99.90;;;;;;6231319;28;20135;-78
2021/07/09 02:03:44;;;;;;;6.68;5.43;;;16.70;99.90;;;;;;6223084;28;20095;-77
2021/07/09 02:06:46;;;;;;;6.20;4.10;;;16.70;99.90;;;;;;6215500;28;20073;-78
2021/07/09 02:09:51;;;;;;;7.53;4.50;;;16.70;99.90;;;;;;6199171;28;20591;-78
2021/07/09 02:12:54;;;;;;;6.75;4.65;;;16.70;99.90;;;;;;6226194;28;20637;-80
2021/07/09 02:15:56;;;;;;;6.32;4.82;;;16.70;99.90;;;;;;6227403;28;20061;-78
2021/07/09 02:18:58;;;;;;;5.60;4.25;;;16.60;99.90;;;;;;6220367;28;20047;-80
2021/07/09 02:22:01;;;;;;;7.22;4.85;;;16.60;99.90;;;;;;6205387;28;20081;-80
2021/07/09 02:25:06;;;;;;;6.10;3.90;;;16.60;99.90;;;;;;6229203;28;20046;-80
2021/07/09 02:28:08;;;;;;;6.72;4.63;;;16.60;99.90;;;;;;6209838;28;20510;-78
2021/07/09 02:31:10;;;;;;;5.25;4.78;;;16.60;99.90;;;;;;6214202;28;20046;-80
2021/07/09 02:34:12;;;;;;;5.65;4.30;;;16.50;99.90;;;;;;6225735;28;20113;-78
2021/07/09 02:37:14;;;;;;;6.80;6.15;;;16.50;99.90;;;;;;6203991;28;20452;-80
2021/07/09 02:40:20;;;;;;;14.05;4.50;;;16.50;99.90;;;;;;6222408;28;20482;-80
2021/07/09 02:43:21;;;;;;;4.18;3.80;;;16.50;99.90;;;;;;6216444;28;20052;-79
2021/07/09 02:46:23;;;;;;;6.32;4.70;;;16.50;99.90;;;;;;6207508;28;20048;-79
2021/07/09 02:49:25;;;;;;;4.63;4.15;;;16.50;99.90;;;;;;6227603;28;20081;-81
2021/07/09 02:52:27;;;;;;;5.50;4.10;;;16.50;99.90;;;;;;6207087;28;20122;-80
2021/07/09 02:55:30;;;;;;;6.28;3.90;;;16.50;99.90;;;;;;6215669;28;20135;-79
2021/07/09 02:58:32;;;;;;;6.13;4.15;;;16.50;99.90;;;;;;6222454;28;20129;-77
2021/07/09 03:01:33;;;;;;;6.00;5.32;;;16.50;99.90;;;;;;6203556;28;20050;-80
2021/07/09 03:04:35;;;;;;;5.53;4.53;;;16.40;99.90;;;;;;6225258;28;20056;-80
2021/07/09 03:07:38;;;;;;;7.95;4.15;;;16.40;99.90;;;;;;6213617;28;20054;-77
2021/07/09 03:10:41;;;;;;;5.50;5.00;;;16.40;99.90;;;;;;6209212;28;20046;-78
2021/07/09 03:13:43;;;;;;;7.72;4.43;;;16.30;99.90;;;;;;6228712;28;20135;-77
2021/07/09 03:16:45;;;;;;;9.23;4.15;;;16.30;99.90;;;;;;6205261;28;20507;-80
2021/07/09 03:19:46;;;;;;;4.50;4.03;;;16.30;99.90;;;;;;6223949;28;20132;-77
2021/07/09 03:22:49;;;;;;;7.07;5.93;;;16.30;99.90;;;;;;6225599;28;20050;-79
2021/07/09 03:25:52;;;;;;;5.97;5.07;;;16.30;99.90;;;;;;6209130;28;20091;-78
2021/07/09 03:28:57;;;;;;;5.13;4.25;;;16.20;99.90;;;;;;6232198;28;20077;-80
2021/07/09 03:31:59;;;;;;;6.90;5.32;;;16.20;99.90;;;;;;6232887;28;20086;-78
2021/07/09 03:35:00;;;;;;;7.15;5.32;;;16.20;99.90;;;;;;6224131;28;20137;-78
2021/07/09 03:38:02;;;;;;;5.97;4.95;;;16.20;99.90;;;;;;6208372;28;20583;-79
2021/07/09 03:41:06;;;;;;;8.50;5.00;;;16.20;99.90;;;;;;6233331;28;20505;-79
2021/07/09 03:44:08;;;;;;;8.60;4.47;;;16.20;99.90;;;;;;6209725;28;20089;-77
2021/07/09 03:47:10;;;;;;;5.78;4.70;;;16.20;99.90;;;;;;6212090;28;20519;-77
2021/07/09 03:50:14;;;;;;;7.85;5.65;;;16.10;99.90;;;;;;6224919;28;20050;-77
2021/07/09 03:53:16;;;;;;;4.80;4.30;;;16.10;99.90;;;;;;6202738;28;20125;-77
2021/07/09 03:56:19;;;;;;;7.80;4.70;;;16.10;99.90;;;;;;6221159;28;20057;-77
2021/07/09 03:59:21;;;;;;;5.55;4.88;;;16.10;99.90;;;;;;6215059;28;20128;-77
2021/07/09 04:02:23;;;;;;;6.43;5.85;;;16.10;99.90;;;;;;6205431;28;20067;-77
2021/07/09 04:05:24;;;;;;;8.80;6.18;;;16.10;99.90;;;;;;6226103;28;20133;-77
2021/07/09 04:08:26;;;;;;;14.02;5.88;;;16.00;99.90;;;;;;6205406;28;20225;-77
2021/07/09 04:11:29;;;;;;;6.70;5.38;;;16.00;99.90;;;;;;6213663;28;20181;-77
2021/07/09 04:14:31;;;;;;;8.38;5.85;;;15.90;99.90;;;;;;6221068;28;20066;-77
2021/07/09 04:17:33;;;;;;;9.18;6.55;;;15.80;99.90;;;;;;6201429;28;20073;-77
2021/07/09 04:20:35;;;;;;;10.38;6.95;;;15.80;99.90;;;;;;6224060;28;20721;-76
2021/07/09 04:23:36;;;;;;;11.30;6.85;;;15.70;99.90;;;;;;6225169;28;20583;-77
2021/07/09 04:26:40;;;;;;;8.65;7.93;;;15.70;99.90;;;;;;6219028;28;20525;-76
2021/07/09 04:29:41;;;;;;;11.07;7.03;;;15.70;99.90;;;;;;6200626;28;20057;-77
2021/07/09 04:32:43;;;;;;;11.07;7.28;;;15.70;99.90;;;;;;6223362;28;20050;-76
2021/07/09 04:35:45;;;;;;;9.90;6.65;;;15.60;99.90;;;;;;6209879;28;20073;-76
2021/07/09 04:38:47;;;;;;;10.52;6.90;;;15.70;99.90;;;;;;6207308;28;20067;-76
2021/07/09 04:41:50;;;;;;;11.05;6.50;;;15.70;99.90;;;;;;6225172;28;20499;-77
2021/07/09 04:44:52;;;;;;;7.75;6.80;;;15.70;99.90;;;;;;6200901;28;20419;-76
2021/07/09 04:47:54;;;;;;;9.13;7.18;;;15.70;99.90;;;;;;6215799;28;20711;-76
2021/07/09 04:50:56;;;;;;;8.50;7.65;;;15.70;99.90;;;;;;6224412;28;20053;-77
2021/07/09 04:53:57;;;;;;;10.18;7.78;;;15.70;99.90;;;;;;6224115;28;20050;-76
2021/07/09 04:57:01;;;;;;;8.23;6.55;;;15.70;99.90;;;;;;6200355;28;20134;-77
2021/07/09 05:00:04;;;;;;;10.63;7.15;;;15.70;99.90;;;;;;6216993;28;20108;-76
2021/07/09 05:03:06;;;;;;;15.18;7.75;;;15.70;99.90;;;;;;6224086;28;20188;-77
2021/07/09 05:06:08;;;;;;;11.88;7.45;;;15.70;99.90;;;;;;6222157;28;20050;-77
2021/07/09 05:09:10;;;;;;;10.18;7.43;;;15.70;99.90;;;;;;6200135;28;20208;-77
2021/07/09 05:12:13;;;;;;;8.32;7.50;;;15.70;99.90;;;;;;6217928;28;20104;-76
2021/07/09 05:15:15;;;;;;;9.82;7.38;;;15.70;99.90;;;;;;6213241;28;20077;-77
2021/07/09 05:18:17;;;;;;;9.63;7.35;;;15.70;99.90;;;;;;6202040;28;20184;-77
2021/07/09 05:21:19;;;;;;;10.02;7.47;;;15.70;99.90;;;;;;6224484;28;20060;-76
2021/07/09 05:24:25;;;;;;;7.05;6.25;;;15.80;99.90;;;;;;6204322;28;20099;-77
2021/07/09 05:27:29;;;;;;;7.65;6.13;;;15.80;99.90;;;;;;6211220;28;20068;-77
2021/07/09 05:30:31;;;;;;;10.15;7.10;;;15.80;99.90;;;;;;6219360;28;20046;-76
2021/07/09 05:33:33;;;;;;;7.22;5.43;;;15.90;99.90;;;;;;6199943;28;20046;-76
2021/07/09 05:36:37;;;;;;;6.22;5.63;;;16.00;99.90;;;;;;6220226;28;20577;-77
2021/07/09 05:39:38;;;;;;;7.60;5.85;;;16.00;99.90;;;;;;6208602;28;20530;-76
2021/07/09 05:42:42;;;;;;;6.32;5.60;;;16.00;99.90;;;;;;6205190;28;20261;-76
2021/07/09 05:45:43;;;;;;;20.38;7.22;;;16.10;99.90;;;;;;6222970;28;20132;-76
2021/07/09 05:48:45;;;;;;;8.52;6.38;;;16.20;99.90;;;;;;6223327;28;20053;-77
2021/07/09 05:51:47;;;;;;;8.15;6.25;;;16.20;99.90;;;;;;6208169;28;20078;-76
2021/07/09 05:54:49;;;;;;;6.70;6.10;;;16.30;99.90;;;;;;6206072;28;20125;-77
2021/07/09 05:57:52;;;;;;;7.22;5.82;;;16.30;99.90;;;;;;6223335;28;20057;-76
2021/07/09 06:00:54;;;;;;;7.50;5.57;;;16.40;99.90;;;;;;6198984;28;20090;-76
2021/07/09 06:03:56;;;;;;;5.85;5.07;;;16.40;99.90;;;;;;6210599;28;20623;-77
2021/07/09 06:06:58;;;;;;;6.90;5.85;;;16.50;99.90;;;;;;6210875;28;20069;-77
2021/07/09 06:09:59;;;;;;;5.45;4.95;;;16.50;99.90;;;;;;6209675;28;20189;-76
2021/07/09 06:13:03;;;;;;;10.77;5.63;;;16.50;99.90;;;;;;6204052;28;20049;-77
2021/07/09 06:16:05;;;;;;;5.18;4.57;;;16.60;99.90;;;;;;6223199;28;20127;-77
2021/07/09 06:19:07;;;;;;;7.10;5.50;;;16.60;99.90;;;;;;6224747;28;20049;-75
2021/07/09 06:22:09;;;;;;;6.40;5.07;;;16.60;99.90;;;;;;6214857;28;20564;-77
2021/07/09 06:25:12;;;;;;;8.80;5.63;;;16.60;99.90;;;;;;6198456;28;20057;-76
2021/07/09 06:28:15;;;;;;;6.90;4.50;;;16.60;99.90;;;;;;6197760;28;20095;-77
2021/07/09 06:31:18;;;;;;;5.15;4.50;;;16.60;99.90;;;;;;6197870;28;20082;-77
2021/07/09 06:34:20;;;;;;;10.70;5.10;;;16.60;99.90;;;;;;6198124;28;20066;-77
2021/07/09 06:37:21;;;;;;;8.43;5.80;;;16.70;99.90;;;;;;6198084;28;20145;-77
2021/07/09 06:40:24;;;;;;;5.35;4.85;;;16.80;99.90;;;;;;6215772;28;20042;-77
2021/07/09 06:43:27;;;;;;;8.55;4.38;;;16.80;99.90;;;;;;6222297;28;20046;-77
2021/07/09 06:46:29;;;;;;;16.02;7.47;;;16.80;99.90;;;;;;6222286;28;20087;-76
2021/07/09 06:49:31;;;;;;;5.13;4.57;;;16.90;99.90;;;;;;6222491;28;20534;-76
2021/07/09 06:52:33;;;;;;;11.63;4.97;;;16.90;99.90;;;;;;6221652;28;20129;-76
2021/07/09 06:55:36;;;;;;;8.95;4.97;;;17.00;99.90;;;;;;6221768;28;20124;-76
2021/07/09 06:58:39;;;;;;;4.78;3.90;;;17.10;99.90;;;;;;6222009;28;20046;-76
2021/07/09 07:01:41;;;;;;;7.40;4.70;;;17.20;99.90;;;;;;6222627;28;20143;-77
2021/07/09 07:04:43;;;;;;;6.07;5.28;;;17.40;99.90;;;;;;6221778;28;20104;-77
2021/07/09 07:07:45;;;;;;;5.18;4.43;;;17.50;99.90;;;;;;6221582;28;20065;-76
2021/07/09 07:10:49;;;;;;;3.70;3.20;;;17.80;99.90;;;;;;6221661;28;20042;-76
2021/07/09 07:13:52;;;;;;;3.67;3.35;;;18.10;99.90;;;;;;6209822;28;20047;-77
2021/07/09 07:16:54;;;;;;;4.72;3.92;;;18.60;99.90;;;;;;6196924;28;20529;-77
2021/07/09 07:19:56;;;;;;;5.43;4.93;;;18.90;99.90;;;;;;6197326;28;20046;-76
2021/07/09 07:22:57;;;;;;;5.43;3.40;;;19.20;99.90;;;;;;6197215;28;20181;-77
2021/07/09 07:25:59;;;;;;;5.15;3.97;;;19.40;99.90;;;;;;6196987;28;20081;-77
2021/07/09 07:29:02;;;;;;;3.28;2.97;;;19.70;99.90;;;;;;6197562;28;20516;-77
2021/07/09 07:32:05;;;;;;;5.55;3.10;;;19.90;99.90;;;;;;6197275;28;20540;-77
2021/07/09 07:35:07;;;;;;;4.35;3.95;;;20.10;99.90;;;;;;6197274;28;20157;-77
2021/07/09 07:38:09;;;;;;;7.72;3.78;;;20.30;99.90;;;;;;6196932;28;20142;-77
2021/07/09 07:41:11;;;;;;;3.28;2.88;;;20.50;99.90;;;;;;6197864;28;20106;-77
2021/07/09 07:44:14;;;;;;;4.70;3.30;;;20.70;99.90;;;;;;6196938;28;20066;-77
2021/07/09 07:47:21;;;;;;;3.38;3.08;;;20.80;99.90;;;;;;6197111;28;20225;-77
2021/07/09 07:50:24;;;;;;;3.38;3.08;;;21.00;99.90;;;;;;6196909;28;20058;-76
2021/07/09 07:53:27;;;;;;;5.97;4.35;;;21.20;99.80;;;;;;6197526;28;20050;-77
2021/07/09 07:56:29;;;;;;;13.50;4.32;;;21.20;99.10;;;;;;6194260;28;20082;-77
2021/07/09 07:59:32;;;;;;;3.97;3.17;;;21.10;99.00;;;;;;6199479;28;20054;-77
2021/07/09 08:02:34;;;;;;;6.32;4.90;;;21.20;98.20;;;;;;6198200;28;20053;-77
2021/07/09 08:05:36;;;;;;;4.68;3.17;;;21.20;97.70;;;;;;6202332;28;20054;-77
2021/07/09 08:08:38;;;;;;;11.60;3.47;;;21.50;97.30;;;;;;6179509;28;20110;-76
2021/07/09 08:11:40;;;;;;;4.57;3.20;;;21.70;96.30;;;;;;6177029;28;20526;-77
2021/07/09 08:14:43;;;;;;;3.60;3.13;;;21.80;96.20;;;;;;6196192;28;20038;-77
2021/07/09 08:17:45;;;;;;;3.80;3.30;;;21.60;95.50;;;;;;6201356;28;20062;-77
2021/07/09 08:20:47;;;;;;;8.50;3.78;;;21.50;95.40;;;;;;6200963;28;20463;-77
2021/07/09 08:23:49;;;;;;;5.68;4.35;;;21.40;95.20;;;;;;6200794;28;20125;-76
2021/07/09 08:26:51;;;;;;;4.18;3.70;;;21.50;94.80;;;;;;6200624;28;20129;-76
2021/07/09 08:29:54;;;;;;;6.60;3.85;;;21.40;94.90;;;;;;6201380;28;20054;-76
2021/07/09 08:32:56;;;;;;;5.80;3.25;;;21.40;94.90;;;;;;6200721;28;20072;-77
2021/07/09 08:35:58;;;;;;;4.57;3.58;;;21.50;94.90;;;;;;6200288;28;20046;-77
2021/07/09 08:39:00;;;;;;;5.85;3.42;;;21.60;95.10;;;;;;6200947;28;20096;-77
2021/07/09 08:42:01;;;;;;;5.07;3.33;;;21.90;94.00;;;;;;6201162;28;20137;-76
2021/07/09 08:45:06;;;;;;;6.80;3.25;;;22.20;93.80;;;;;;6200956;28;20097;-76
2021/07/09 08:48:09;;;;;;;7.53;3.65;;;22.40;92.80;;;;;;6200445;28;20049;-77
2021/07/09 08:51:12;;;;;;;3.95;3.58;;;22.60;92.70;;;;;;6200268;28;20046;-76
2021/07/09 08:54:15;;;;;;;8.05;3.80;;;22.80;91.60;;;;;;6200395;28;20056;-76
2021/07/09 08:57:17;;;;;;;5.30;3.38;;;22.90;91.30;;;;;;6199136;28;20136;-77
2021/07/09 09:00:43;;;;;;;2.92;2.72;;;23.40;91.10;;;;;;6215645;28;20522;-77
2021/07/09 09:03:45;;;;;;;5.15;3.53;;;25.00;88.30;;;;;;6209432;28;20086;-76
2021/07/09 09:06:46;;;;;;;10.43;4.30;;;25.40;82.70;;;;;;6199763;28;20124;-76
2021/07/09 09:09:48;;;;;;;3.75;3.40;;;24.50;82.40;;;;;;6199867;28;20288;-76
2021/07/09 09:13:04;;;;;;;4.10;3.55;;;23.80;85.70;;;;;;6199952;28;20519;-77
2021/07/09 09:16:10;;;;;;;9.00;3.88;;;23.50;87.20;;;;;;6216653;28;20049;-76
2021/07/09 09:19:12;;;;;;;5.05;3.70;;;23.50;86.70;;;;;;6213946;28;20120;-77
2021/07/09 09:22:14;;;;;;;5.97;3.75;;;23.40;86.90;;;;;;6199508;28;20109;-76
2021/07/09 10:12:10;;;;;;;4.53;3.70;;;24.20;80.80;;;;;;5408023;26;20047;-78
2021/07/09 10:15:12;;;;;;;5.78;4.22;;;23.70;83.60;;;;;;6158586;28;20051;-79
2021/07/09 10:18:16;;;;;;;9.05;4.03;;;23.20;84.90;;;;;;6149998;28;20078;-78
2021/07/09 10:21:18;;;;;;;4.10;3.80;;;23.00;87.10;;;;;;6151171;28;20137;-78
2021/07/09 10:24:20;;;;;;;8.75;4.93;;;22.70;88.80;;;;;;6150261;28;20130;-78
2021/07/09 10:27:26;;;;;;;7.07;4.28;;;22.40;88.80;;;;;;6149667;28;20054;-77
2021/07/09 10:30:36;;;;;;;4.72;4.30;;;22.50;90.30;;;;;;6151466;28;20536;-78
2021/07/09 10:33:38;;;;;;;6.88;4.43;;;23.30;89.30;;;;;;6150473;28;20125;-78
2021/07/09 10:36:40;;;;;;;10.65;4.63;;;24.10;86.10;;;;;;6150011;28;20051;-77
2021/07/09 10:39:43;;;;;;;5.25;3.63;;;24.40;84.00;;;;;;6150275;28;20043;-77
2021/07/09 10:42:48;;;;;;;8.43;3.65;;;24.30;83.70;;;;;;6150181;28;20067;-77
2021/07/09 10:45:50;;;;;;;7.78;3.75;;;24.30;86.90;;;;;;6149618;28;20141;-78
2021/07/09 10:48:52;;;;;;;4.75;4.18;;;24.30;87.70;;;;;;6149984;28;20174;-77
2021/07/09 10:51:55;;;;;;;5.65;3.90;;;24.70;84.40;;;;;;6151834;28;20121;-76
2021/07/09 10:54:59;;;;;;;6.18;3.38;;;24.90;81.80;;;;;;6152321;28;20075;-77
2021/07/09 10:58:40;;;;;;;4.90;4.03;;;25.00;80.50;;;;;;6149323;28;20588;-77
2021/07/09 11:01:42;;;;;;;6.57;3.38;;;24.90;81.90;;;;;;6141359;28;20062;-77
2021/07/09 11:04:45;;;;;;;5.85;3.38;;;24.80;81.80;;;;;;6149041;28;20529;-77
2021/07/09 11:07:47;;;;;;;4.57;3.50;;;24.70;81.90;;;;;;6149183;28;20051;-77
2021/07/09 11:10:56;;;;;;;8.60;3.97;;;24.60;81.00;;;;;;6149481;28;20043;-78
2021/07/09 11:14:02;;;;;;;7.28;3.67;;;24.60;80.70;;;;;;6149745;28;20126;-76
2021/07/09 11:17:15;;;;;;;11.20;4.90;;;24.80;80.80;;;;;;6150124;28;20145;-77
2021/07/09 11:20:17;;;;;;;4.30;3.22;;;25.80;77.40;;;;;;6149290;28;20054;-77
2021/07/09 11:23:20;;;;;;;4.25;3.22;;;26.10;74.70;;;;;;6149977;28;20136;-77
2021/07/09 11:26:22;;;;;;;6.35;3.67;;;26.20;73.10;;;;;;6149133;28;20522;-77
2021/07/09 11:29:28;;;;;;;7.60;4.85;;;26.10;72.30;;;;;;6149619;28;20110;-76
2021/07/09 11:32:31;;;;;;;10.38;4.30;;;25.90;72.30;;;;;;6149271;28;20133;-77
2021/07/09 11:35:33;;;;;;;5.40;3.38;;;25.60;73.40;;;;;;6148545;28;20560;-77
2021/07/09 11:38:35;;;;;;;7.00;3.63;;;25.60;73.60;;;;;;6150878;28;20047;-77
2021/07/09 11:41:57;;;;;;;4.70;3.38;;;25.60;73.50;;;;;;6153882;28;20115;-77
2021/07/09 11:45:01;;;;;;;4.78;3.83;;;25.30;74.80;;;;;;6154186;28;20043;-77
2021/07/09 11:48:04;;;;;;;8.68;4.70;;;25.00;76.40;;;;;;6153243;28;20043;-77
2021/07/09 11:51:06;;;;;;;5.82;5.30;;;24.50;79.00;;;;;;6153907;28;20137;-77
2021/07/09 11:54:08;;;;;;;8.43;5.55;;;23.70;83.20;;;;;;6152545;28;20576;-77
2021/07/09 11:57:13;;;;;;;6.32;5.65;;;23.00;88.20;;;;;;6152743;28;20505;-78
2021/07/09 12:00:18;;;;;;;7.60;6.68;;;22.50;90.50;;;;;;6153299;28;20089;-76
2021/07/09 12:03:20;;;;;;;8.75;7.90;;;22.10;92.00;;;;;;6144278;28;20066;-76
2021/07/09 12:06:22;;;;;;;6.55;5.93;;;21.80;93.70;;;;;;6129174;28;20118;-76
2021/07/09 12:09:23;;;;;;;9.77;7.28;;;21.50;93.70;;;;;;6129686;29;20161;-76
2021/07/09 12:12:27;;;;;;;7.05;6.35;;;21.20;95.10;;;;;;6130247;28;20164;-77
2021/07/09 12:15:31;;;;;;;7.72;7.13;;;21.00;95.60;;;;;;6152669;28;20083;-76
2021/07/09 12:18:33;;;;;;;6.28;5.72;;;21.20;97.00;;;;;;6153034;28;20043;-77
2021/07/09 12:21:35;;;;;;;6.85;5.28;;;21.30;96.40;;;;;;6153694;28;20106;-76
2021/07/09 12:24:37;;;;;;;5.68;5.15;;;21.50;95.40;;;;;;6152681;28;20130;-76
2021/07/09 12:27:39;;;;;;;4.63;4.20;;;21.80;95.60;;;;;;6152781;28;20105;-77
2021/07/09 12:30:45;;;;;;;5.88;5.38;;;22.00;95.40;;;;;;6153115;28;20047;-77
2021/07/09 12:33:52;;;;;;;4.32;3.92;;;22.40;96.30;;;;;;6152710;28;20059;-77
2021/07/09 12:37:01;;;;;;;;;;;23.10;94.90;;;;;;6152616;28;20054;-77
2021/07/09 12:40:10;;;;;;;;;;;23.60;93.50;;;;;;6153305;28;20021;-77
2021/07/09 12:43:17;;;;;;;5.40;4.53;;;24.00;92.00;;;;;;6152788;28;19977;-77
2021/07/09 12:46:23;;;;;;;4.78;3.85;;;24.00;89.10;;;;;;6151810;28;20510;-77
2021/07/09 12:49:24;;;;;;;5.50;4.07;;;24.00;88.80;;;;;;6152658;28;20130;-77
2021/07/09 12:52:27;;;;;;;5.68;4.50;;;24.00;90.80;;;;;;6152021;28;20425;-77
2021/07/09 12:55:38;;;;;;;7.85;6.40;;;24.00;89.70;;;;;;6151931;28;20101;-77
2021/07/09 12:58:39;;;;;;;5.35;4.85;;;23.90;88.80;;;;;;6151612;28;20070;-78
2021/07/09 13:01:47;;;;;;;7.57;5.22;;;23.70;88.90;;;;;;6152269;28;20142;-77
2021/07/09 13:04:49;;;;;;;6.03;4.93;;;23.50;89.20;;;;;;6149686;28;20105;-77
2021/07/09 13:08:12;;;;;;;5.63;5.13;;;23.20;89.20;;;;;;6151419;28;20090;-78
2021/07/09 13:11:17;;;;;;;5.28;4.88;;;22.90;90.10;;;;;;6151736;28;20074;-78
2021/07/09 13:14:23;;;;;;;5.18;4.78;;;22.70;90.20;;;;;;6151540;28;20130;-78
2021/07/09 13:17:28;;;;;;;5.63;5.22;;;22.50;91.00;;;;;;6151695;28;20058;-77
2021/07/09 13:20:30;;;;;;;5.05;4.38;;;22.50;91.50;;;;;;6151638;28;20182;-77
2021/07/09 13:23:32;;;;;;;7.00;5.35;;;22.60;90.80;;;;;;6151524;28;20439;-77
2021/07/09 13:26:37;;;;;;;5.50;4.45;;;22.80;90.50;;;;;;6151276;28;20053;-77
2021/07/09 13:29:39;;;;;;;4.88;4.47;;;22.90;90.10;;;;;;6152063;28;20206;-77
2021/07/09 13:32:43;;;;;;;5.43;4.22;;;23.10;90.40;;;;;;6151290;28;20450;-77
2021/07/09 13:35:49;;;;;;;4.47;3.97;;;23.30;88.90;;;;;;6150598;28;20548;-77
2021/07/09 13:38:51;;;;;;;4.78;3.45;;;23.50;86.90;;;;;;6149500;28;20047;-77
2021/07/09 13:41:53;;;;;;;5.70;3.70;;;23.70;84.70;;;;;;6150653;28;20141;-77
2021/07/09 13:44:55;;;;;;;6.07;4.13;;;23.60;87.50;;;;;;6150777;28;20167;-77
2021/07/09 13:48:00;;;;;;;4.65;4.22;;;23.50;86.50;;;;;;6150460;28;20133;-78
2021/07/09 13:51:02;;;;;;;4.70;4.30;;;23.50;85.30;;;;;;6150678;28;20055;-77
2021/07/09 13:54:03;;;;;;;3.65;3.22;;;23.60;85.80;;;;;;6150603;28;20141;-78
2021/07/09 13:57:05;;;;;;;3.88;3.58;;;23.80;85.70;;;;;;6148021;28;20047;-77
2021/07/09 14:00:08;;;;;;;5.10;3.58;;;24.00;85.70;;;;;;6150601;28;20067;-77
2021/07/09 14:03:11;;;;;;;4.97;3.05;;;24.40;85.40;;;;;;6150945;28;20134;-77
2021/07/09 14:06:14;;;;;;;4.70;3.03;;;24.60;83.40;;;;;;6143626;28;20070;-76
2021/07/09 14:09:16;;;;;;;5.15;3.17;;;24.70;80.50;;;;;;6151037;28;20055;-78
2021/07/09 14:12:18;;;;;;;8.68;7.03;;;24.80;80.60;;;;;;6150361;28;20170;-77
2021/07/09 14:15:20;;;;;;;5.20;3.63;;;24.70;81.20;;;;;;6150494;28;20122;-76
2021/07/09 14:18:23;;;;;;;3.53;3.22;;;24.60;81.30;;;;;;6150409;28;20125;-76
2021/07/09 14:21:25;;;;;;;4.78;4.35;;;24.40;85.70;;;;;;6150703;28;20125;-77
2021/07/09 14:24:27;;;;;;;4.75;4.35;;;23.80;90.10;;;;;;6150193;28;20051;-77
2021/07/09 14:27:29;;;;;;;12.05;8.52;;;22.70;92.40;;;;;;6150830;28;20051;-76
2021/07/09 14:30:30;;;;;;;8.02;3.65;;;21.80;94.20;;;;;;6150801;28;20210;-77
2021/07/09 14:33:34;;;;;;;4.00;3.65;;;21.30;93.90;;;;;;6151230;28;20082;-77
2021/07/09 14:36:35;;;;;;;4.63;4.03;;;21.10;94.20;;;;;;6150356;28;20536;-75
2021/07/09 14:39:37;;;;;;;4.43;4.03;;;20.80;95.80;;;;;;6150225;28;20130;-78
2021/07/09 14:42:40;;;;;;;5.72;5.03;;;20.70;96.40;;;;;;6150442;28;20118;-78
2021/07/09 14:45:42;;;;;;;4.32;3.83;;;20.70;97.60;;;;;;6150747;28;20078;-76
2021/07/09 14:48:46;;;;;;;5.60;3.63;;;20.80;97.50;;;;;;6150630;28;20043;-77
2021/07/09 14:51:48;;;;;;;4.65;3.45;;;20.90;97.10;;;;;;6150607;28;20174;-75
2021/07/09 14:54:49;;;;;;;5.57;4.95;;;21.00;96.70;;;;;;6150407;28;20174;-76
2021/07/09 14:57:51;;;;;;;3.70;3.40;;;21.30;97.00;;;;;;6150973;28;20614;-77
2021/07/09 15:00:55;;;;;;;5.38;4.28;;;21.40;96.50;;;;;;6150400;28;20047;-78
2021/07/09 15:03:58;;;;;;;3.58;3.28;;;21.50;97.00;;;;;;6149545;28;20201;-77
2021/07/09 15:07:02;;;;;;;4.13;3.50;;;21.60;97.20;;;;;;6136374;28;20203;-77
2021/07/09 15:10:04;;;;;;;4.00;3.28;;;21.60;96.70;;;;;;6126569;28;20460;-78
2021/07/09 15:13:06;;;;;;;6.68;4.82;;;21.50;97.50;;;;;;6137106;29;20089;-78
2021/07/09 15:16:08;;;;;;;4.15;3.67;;;21.40;97.70;;;;;;6157332;28;20066;-78
2021/07/09 15:19:11;;;;;;;5.95;4.20;;;21.30;97.90;;;;;;6159062;28;20590;-77
2021/07/09 15:22:14;;;;;;;6.43;4.35;;;21.20;97.80;;;;;;6159703;28;20086;-78
2021/07/09 15:25:16;;;;;;;4.50;3.95;;;21.20;98.70;;;;;;6158703;28;20082;-78
2021/07/09 15:28:19;;;;;;;4.82;4.32;;;21.20;98.30;;;;;;6159755;28;20051;-77
2021/07/09 15:31:21;;;;;;;5.45;4.95;;;21.10;98.40;;;;;;6157819;28;20050;-77
2021/07/09 15:34:24;;;;;;;4.40;3.60;;;20.90;99.00;;;;;;6158221;28;20079;-75
2021/07/09 15:37:26;;;;;;;4.88;4.47;;;20.70;98.70;;;;;;6157114;28;20397;-76
2021/07/09 15:40:28;;;;;;;5.25;4.72;;;20.70;99.90;;;;;;6157323;28;20075;-76
2021/07/09 15:43:30;;;;;;;8.77;6.80;;;20.70;99.90;;;;;;6156943;28;20075;-77
2021/07/09 15:46:32;;;;;;;6.05;5.55;;;20.70;99.90;;;;;;6157317;28;20075;-77
2021/07/09 15:49:35;;;;;;;6.30;5.70;;;20.70;99.90;;;;;;6157531;28;20465;-76
2021/07/09 15:52:37;;;;;;;7.45;5.32;;;20.60;99.90;;;;;;6156079;28;20141;-78
2021/07/09 15:55:39;;;;;;;6.05;5.43;;;20.50;99.90;;;;;;6170634;28;20051;-77
2021/07/09 15:58:40;;;;;;;5.95;5.38;;;20.40;99.90;;;;;;6181019;28;20122;-77
2021/07/09 16:01:42;;;;;;;6.40;5.80;;;20.30;99.90;;;;;;6180247;28;20066;-77
2021/07/09 16:04:45;;;;;;;5.20;4.80;;;20.30;99.90;;;;;;6180313;28;20508;-78
2021/07/09 16:07:47;;;;;;;5.60;5.20;;;20.20;99.90;;;;;;6179152;28;20186;-76
2021/07/09 16:10:49;;;;;;;6.00;5.28;;;20.00;99.90;;;;;;6180275;28;20039;-76
2021/07/09 16:13:52;;;;;;;6.65;6.05;;;19.70;99.90;;;;;;6181466;28;20154;-77
2021/07/09 16:16:54;;;;;;;20.52;7.75;;;19.50;99.90;;;;;;6180957;28;20050;-76
2021/07/09 16:19:58;;;;;;;7.90;6.70;;;19.50;99.90;;;;;;6181304;28;20082;-76
2021/07/09 16:23:00;;;;;;;12.00;7.38;;;19.50;99.90;;;;;;6180948;28;20082;-77
2021/07/09 16:26:02;;;;;;;7.43;6.82;;;19.50;99.90;;;;;;6177060;28;20178;-76
2021/07/09 16:29:04;;;;;;;8.30;7.47;;;19.50;99.90;;;;;;6177889;28;20047;-77
2021/07/09 16:32:07;;;;;;;7.68;6.95;;;19.50;99.90;;;;;;6177738;28;20508;-78
2021/07/09 16:35:10;;;;;;;9.30;7.53;;;19.40;99.90;;;;;;6177176;28;20136;-77
2021/07/09 16:38:12;;;;;;;7.30;6.70;;;19.40;99.90;;;;;;6175919;28;20125;-76